createdAt,value
2022-11-06T00:03:24.727Z,8.10
2022-11-06T00:08:33.131Z,8.23
2022-11-06T00:13:26.769Z,8.10
2022-11-06T00:18:20.262Z,9.23
2022-11-06T00:23:13.566Z,10.97
2022-11-06T00:28:08.305Z,9.60
2022-11-06T00:33:01.560Z,11.37
2022-11-06T00:37:54.862Z,12.20
2022-11-06T00:42:48.197Z,10.17
2022-11-06T00:47:42.886Z,12.30
2022-11-06T00:52:36.187Z,12.53
2022-11-06T00:57:29.891Z,11.20
2022-11-06T01:02:23.304Z,11.80
2022-11-06T01:07:17.955Z,13.13
2022-11-06T01:12:13.441Z,11.93
2022-11-06T01:17:07.446Z,13.43
2022-11-06T01:22:00.757Z,10.90
2022-11-06T01:32:09.573Z,11.97
2022-11-06T01:37:03.063Z,14.80
2022-11-06T01:41:57.859Z,12.13
2022-11-06T01:46:51.195Z,13.43
2022-11-06T01:51:50.273Z,13.80
2022-11-06T01:56:47.175Z,13.27
2022-11-06T02:01:42.172Z,13.83
2022-11-06T02:06:36.007Z,13.90
2022-11-06T02:11:30.190Z,12.97
2022-11-06T02:16:38.765Z,12.90
2022-11-06T02:22:08.702Z,12.60
2022-11-06T02:27:12.567Z,11.90
2022-11-06T02:32:13.159Z,12.50
2022-11-06T02:37:13.623Z,12.63
2022-11-06T02:42:11.962Z,13.77
2022-11-06T02:47:10.834Z,13.47
2022-11-06T02:52:11.921Z,12.83
2022-11-06T02:57:15.631Z,14.70
2022-11-06T03:02:17.635Z,15.03
2022-11-06T03:07:21.119Z,13.93
2022-11-06T03:12:26.500Z,13.43
2022-11-06T03:17:30.470Z,13.10
2022-11-06T03:22:34.442Z,13.80
2022-11-06T03:27:36.983Z,13.50
2022-11-06T03:32:36.684Z,14.63
2022-11-06T03:37:37.242Z,14.50
2022-11-06T03:42:33.566Z,14.13
2022-11-06T03:47:33.772Z,15.00
2022-11-06T03:52:36.928Z,14.73
2022-11-06T03:57:42.582Z,15.40
2022-11-06T04:02:42.692Z,14.97
2022-11-06T04:07:42.598Z,14.67
2022-11-06T04:12:59.654Z,14.40
2022-11-06T04:17:53.284Z,14.63
2022-11-06T04:22:56.786Z,14.93
2022-11-06T04:28:10.022Z,16.07
2022-11-06T04:33:12.142Z,15.57
2022-11-06T04:38:15.806Z,14.83
2022-11-06T04:43:23.174Z,13.80
2022-11-06T04:48:19.302Z,15.30
2022-11-06T04:53:15.654Z,14.90
2022-11-06T04:58:11.179Z,13.83
2022-11-06T05:03:04.825Z,15.53
2022-11-06T05:07:58.051Z,16.00
2022-11-06T05:12:51.237Z,14.77
2022-11-06T05:17:45.902Z,14.93
2022-11-06T05:23:00.750Z,14.37
2022-11-06T05:27:54.210Z,13.50
2022-11-06T05:32:49.113Z,13.17
2022-11-06T05:37:42.362Z,11.60
2022-11-06T05:42:35.896Z,10.13
2022-11-06T05:47:29.226Z,11.47
2022-11-06T05:52:23.989Z,10.10
2022-11-06T05:57:17.290Z,9.30
2022-11-06T06:02:11.148Z,8.23
2022-11-06T06:07:04.562Z,7.60
2022-11-06T06:11:59.250Z,4.57
2022-11-06T06:16:52.526Z,5.73
2022-11-06T06:21:45.960Z,4.90
2022-11-06T06:26:39.152Z,5.00
2022-11-06T06:31:33.751Z,6.33
2022-11-06T06:36:26.998Z,6.03
2022-11-06T06:41:20.268Z,6.27
2022-11-06T06:46:13.482Z,5.00
2022-11-06T06:51:08.906Z,5.00
2022-11-06T06:56:02.959Z,4.53
2022-11-06T07:00:56.265Z,5.00
2022-11-06T07:05:49.608Z,6.10
2022-11-06T07:10:44.228Z,7.10
2022-11-06T07:15:37.509Z,6.40
2022-11-06T07:20:31.001Z,6.63
2022-11-06T07:25:24.254Z,6.73
2022-11-06T07:30:19.078Z,10.47
2022-11-06T07:35:12.705Z,7.70
2022-11-06T07:40:07.687Z,7.60
2022-11-06T07:45:00.950Z,6.70
2022-11-06T07:49:57.798Z,6.20
2022-11-06T07:54:51.160Z,6.13
2022-11-06T07:59:44.436Z,6.80
2022-11-06T08:04:37.657Z,6.10
2022-11-06T08:09:32.799Z,6.20
2022-11-06T08:14:26.448Z,6.53
2022-11-06T08:19:19.747Z,7.53
2022-11-06T08:24:17.635Z,4.50
2022-11-06T08:29:15.467Z,10.90
2022-11-06T08:34:09.130Z,4.30
2022-11-06T08:39:02.358Z,4.87
2022-11-06T08:43:55.672Z,5.40
2022-11-06T08:48:50.241Z,4.80
2022-11-06T08:53:43.575Z,4.13
2022-11-06T08:58:36.944Z,4.07
2022-11-06T09:03:30.287Z,3.93
2022-11-06T09:08:25.251Z,3.70
2022-11-06T09:13:18.650Z,7.83
2022-11-06T09:18:12.763Z,16.43
2022-11-06T09:23:09.279Z,4.20
2022-11-06T09:28:03.929Z,3.03
2022-11-06T09:33:00.159Z,3.53
2022-11-06T09:37:53.871Z,3.70
2022-11-06T09:43:09.377Z,2.80
2022-11-06T09:48:18.068Z,3.07
2022-11-06T09:53:21.186Z,3.30
2022-11-06T09:58:22.333Z,11.60
2022-11-06T10:03:23.227Z,2.97
2022-11-06T10:08:23.264Z,2.60
2022-11-06T10:13:51.713Z,2.37
2022-11-06T10:18:59.477Z,2.50
2022-11-06T10:23:59.407Z,2.90
2022-11-06T10:29:27.831Z,2.50
2022-11-06T10:34:28.988Z,3.23
2022-11-06T10:39:28.681Z,2.60
2022-11-06T10:44:29.183Z,15.93
2022-11-06T10:49:36.691Z,2.80
2022-11-06T10:54:52.218Z,3.60
2022-11-06T10:59:46.998Z,2.37
2022-11-06T11:04:40.993Z,3.47
2022-11-06T11:09:35.526Z,4.20
2022-11-06T11:14:31.871Z,3.70
2022-11-06T11:19:35.549Z,4.13
2022-11-06T11:24:29.880Z,3.67
2022-11-06T11:29:28.294Z,4.03
2022-11-06T11:34:26.997Z,3.63
2022-11-06T11:39:25.181Z,4.10
2022-11-06T11:44:20.836Z,3.87
2022-11-06T11:49:31.039Z,3.60
2022-11-06T11:54:27.817Z,4.37
2022-11-06T11:59:26.137Z,4.40
2022-11-06T12:04:27.085Z,3.80
2022-11-06T12:09:23.672Z,3.83
2022-11-06T12:14:38.803Z,4.20
2022-11-06T12:19:37.001Z,4.03
2022-11-06T12:24:44.565Z,4.60
2022-11-06T12:29:45.529Z,4.67
2022-11-06T12:34:46.721Z,5.03
2022-11-06T12:39:47.552Z,4.60
2022-11-06T12:44:40.987Z,5.03
2022-11-06T12:50:10.725Z,5.47
2022-11-06T12:55:24.895Z,4.77
2022-11-06T13:00:21.842Z,5.17
2022-11-06T13:05:21.421Z,5.50
2022-11-06T13:10:38.194Z,5.93
2022-11-06T13:15:42.113Z,5.40
2022-11-06T13:20:50.003Z,6.30
2022-11-06T13:25:56.919Z,6.37
2022-11-06T13:30:52.489Z,7.00
2022-11-06T13:35:47.967Z,6.97
2022-11-06T13:40:46.913Z,6.80
2022-11-06T13:45:53.279Z,7.50
2022-11-06T13:50:59.562Z,6.80
2022-11-06T13:56:10.730Z,6.57
2022-11-06T14:01:19.427Z,6.40
2022-11-06T14:06:20.107Z,7.50
2022-11-06T14:11:18.400Z,6.33
2022-11-06T14:16:32.009Z,7.17
2022-11-06T14:21:49.094Z,6.60
2022-11-06T14:26:46.670Z,6.97
2022-11-06T14:32:03.392Z,7.00
2022-11-06T14:36:56.666Z,6.63
2022-11-06T14:42:01.208Z,6.40
2022-11-06T14:46:59.761Z,7.33
2022-11-06T14:52:02.647Z,6.93
2022-11-06T14:56:56.706Z,6.50
2022-11-06T15:02:03.594Z,6.87
2022-11-06T15:07:09.608Z,6.50
2022-11-06T15:12:05.325Z,6.50
2022-11-06T15:17:10.742Z,6.37
2022-11-06T15:22:16.846Z,7.10
2022-11-06T15:27:18.143Z,6.53
2022-11-06T15:32:18.018Z,6.80
2022-11-06T15:37:16.380Z,7.17
2022-11-06T15:42:15.255Z,7.93
2022-11-06T15:47:24.609Z,7.37
2022-11-06T15:52:19.704Z,7.00
2022-11-06T15:57:21.603Z,7.23
2022-11-06T16:02:19.157Z,7.57
2022-11-06T16:07:16.333Z,7.63
2022-11-06T16:12:14.613Z,10.07
2022-11-06T16:17:13.090Z,9.10
2022-11-06T16:22:12.028Z,8.77
2022-11-06T16:27:08.372Z,8.50
2022-11-06T16:32:06.945Z,8.57
2022-11-06T16:37:03.567Z,8.00
2022-11-06T16:42:25.765Z,7.60
2022-11-06T16:47:21.707Z,7.67
2022-11-06T16:52:26.744Z,8.23
2022-11-06T16:57:26.105Z,7.90
2022-11-06T17:02:26.185Z,8.20
2022-11-06T17:07:23.489Z,9.67
2022-11-06T17:12:16.794Z,12.30
2022-11-06T17:17:26.772Z,10.87
2022-11-06T17:22:20.142Z,9.10
2022-11-06T17:27:13.484Z,8.00
2022-11-06T17:32:06.916Z,8.30
2022-11-06T17:37:13.469Z,8.80
2022-11-06T17:42:06.803Z,9.70
2022-11-06T17:47:00.132Z,9.00
2022-11-06T17:51:59.994Z,8.43
2022-11-06T17:56:56.971Z,9.60
2022-11-06T18:01:50.827Z,8.47
2022-11-06T18:06:46.507Z,8.30
2022-11-06T18:11:39.807Z,9.40
2022-11-06T18:16:43.215Z,8.73
2022-11-06T18:21:37.826Z,8.73
2022-11-06T18:26:31.155Z,9.37
2022-11-06T18:31:37.672Z,9.43
2022-11-06T18:36:32.536Z,9.73
2022-11-06T18:41:25.830Z,13.30
2022-11-06T18:46:23.131Z,27.17
2022-11-06T18:51:33.521Z,12.63
2022-11-06T18:56:28.301Z,10.67
2022-11-06T19:01:23.188Z,10.13
2022-11-06T19:06:21.395Z,9.60
2022-11-06T19:11:17.745Z,9.93
2022-11-06T19:16:13.347Z,10.37
2022-11-06T19:21:16.296Z,10.07
2022-11-06T19:26:30.608Z,11.23
2022-11-06T19:44:22.019Z,11.43
2022-11-06T19:56:27.258Z,14.17
2022-11-06T20:08:10.343Z,12.80
2022-11-06T20:13:13.175Z,12.10
2022-11-06T20:18:08.165Z,12.27
2022-11-06T20:23:03.416Z,12.20
2022-11-06T20:27:59.633Z,15.33
2022-11-06T20:33:00.000Z,11.67
2022-11-06T20:44:57.028Z,11.73
2022-11-06T20:49:50.426Z,11.30
2022-11-06T20:54:48.234Z,13.23
2022-11-06T20:59:45.676Z,14.10
2022-11-06T21:04:41.973Z,9.47
2022-11-06T21:09:37.961Z,8.87
2022-11-06T21:14:31.517Z,8.17
2022-11-06T21:19:29.784Z,8.20
2022-11-06T21:24:23.304Z,8.00
2022-11-06T21:29:16.743Z,8.17
2022-11-06T21:34:10.193Z,8.23
2022-11-06T21:39:09.030Z,8.50
2022-11-06T21:44:03.999Z,8.07
2022-11-06T21:48:58.258Z,8.20
2022-11-06T21:54:13.044Z,9.27
2022-11-06T21:59:11.580Z,8.40
2022-11-06T22:04:05.712Z,8.80
2022-11-06T22:09:01.574Z,9.37
2022-11-06T22:13:57.417Z,15.10
2022-11-06T22:18:52.952Z,12.40
2022-11-06T22:23:46.687Z,18.07
2022-11-06T22:28:40.451Z,10.80
2022-11-06T22:33:35.165Z,10.23
2022-11-06T22:38:29.877Z,10.43
2022-11-06T22:43:23.203Z,9.50
2022-11-06T22:48:16.637Z,9.67
2022-11-06T22:53:14.830Z,8.63
2022-11-06T22:58:09.950Z,8.13
2022-11-06T23:03:03.633Z,8.63
2022-11-06T23:07:57.651Z,8.40
2022-11-06T23:12:50.964Z,8.57
2022-11-06T23:17:45.633Z,8.23
2022-11-06T23:22:38.885Z,9.07
2022-11-06T23:27:32.554Z,8.73
2022-11-06T23:32:25.816Z,8.83
2022-11-06T23:37:21.131Z,8.17
2022-11-06T23:42:15.842Z,7.93
2022-11-06T23:47:09.104Z,8.77
2022-11-06T23:52:02.681Z,8.63
2022-11-06T23:56:57.365Z,8.30
